createdAt,value
2018-11-12T00:00:02.091Z,11.83
2018-11-12T00:02:32.743Z,11.87
2018-11-12T00:05:03.340Z,11.86
2018-11-12T00:07:35.316Z,11.87
2018-11-12T00:10:06.329Z,11.82
2018-11-12T00:12:36.968Z,11.79
2018-11-12T00:15:08.761Z,11.84
2018-11-12T00:17:39.442Z,11.83
2018-11-12T00:20:11.846Z,11.86
2018-11-12T00:22:42.685Z,11.81
2018-11-12T00:25:13.248Z,11.81
2018-11-12T00:27:44.360Z,11.84
2018-11-12T00:30:17.580Z,11.77
2018-11-12T00:32:48.806Z,11.62
2018-11-12T00:35:19.442Z,11.75
2018-11-12T00:37:49.964Z,11.73
2018-11-12T00:40:20.528Z,11.75
2018-11-12T00:42:51.129Z,11.75
2018-11-12T00:45:21.804Z,11.75
2018-11-12T00:47:52.620Z,11.76
2018-11-12T00:50:23.128Z,11.74
2018-11-12T00:52:53.624Z,11.74
2018-11-12T00:55:24.235Z,11.69
2018-11-12T00:57:54.778Z,11.74
2018-11-12T01:00:25.384Z,11.76
2018-11-12T01:02:55.929Z,11.76
2018-11-12T01:05:26.582Z,11.74
2018-11-12T01:07:57.125Z,11.77
2018-11-12T01:10:27.631Z,11.76
2018-11-12T01:12:58.139Z,11.77
2018-11-12T01:15:28.582Z,11.77
2018-11-12T01:17:59.175Z,11.69
2018-11-12T01:20:29.782Z,11.73
2018-11-12T01:23:00.471Z,11.69
2018-11-12T01:25:31.146Z,11.64
2018-11-12T01:28:01.920Z,11.60
2018-11-12T01:30:32.493Z,11.61
2018-11-12T01:33:03.033Z,11.61
2018-11-12T01:35:33.539Z,11.55
2018-11-12T01:38:04.096Z,11.51
2018-11-12T01:40:34.597Z,11.53
2018-11-12T01:43:05.228Z,11.53
2018-11-12T01:45:35.741Z,11.54
2018-11-12T01:48:06.624Z,11.55
2018-11-12T01:50:37.143Z,11.52
2018-11-12T01:53:07.726Z,11.52
2018-11-12T01:55:38.351Z,11.51
2018-11-12T01:58:08.896Z,11.49
2018-11-12T02:00:39.433Z,11.49
2018-11-12T02:03:10.042Z,11.48
2018-11-12T02:05:40.660Z,11.45
2018-11-12T02:08:11.356Z,11.48
2018-11-12T02:10:41.960Z,11.45
2018-11-12T02:13:12.519Z,11.31
2018-11-12T02:15:43.158Z,11.25
2018-11-12T02:18:13.759Z,11.30
2018-11-12T02:20:44.305Z,11.31
2018-11-12T02:23:14.815Z,11.30
2018-11-12T02:25:45.489Z,11.23
2018-11-12T02:28:17.680Z,11.21
2018-11-12T02:30:49.326Z,11.22
2018-11-12T02:33:19.897Z,11.21
2018-11-12T02:35:50.470Z,11.21
2018-11-12T02:38:21.677Z,11.06
2018-11-12T02:40:52.169Z,10.97
2018-11-12T02:43:22.618Z,11.00
2018-11-12T02:45:53.178Z,11.03
2018-11-12T02:48:23.795Z,11.01
2018-11-12T02:50:54.311Z,10.99
2018-11-12T02:53:24.839Z,11.00
2018-11-12T02:55:55.323Z,11.01
2018-11-12T02:58:25.809Z,11.03
2018-11-12T03:00:56.302Z,10.98
2018-11-12T03:03:26.804Z,10.99
2018-11-12T03:05:57.731Z,11.00
2018-11-12T03:08:28.293Z,10.99
2018-11-12T03:10:58.949Z,10.99
2018-11-12T03:13:29.460Z,11.01
2018-11-12T03:15:59.967Z,11.02
2018-11-12T03:18:30.585Z,10.98
2018-11-12T03:21:01.156Z,11.00
2018-11-12T03:23:31.782Z,11.04
2018-11-12T03:26:02.426Z,11.04
2018-11-12T03:28:33.209Z,11.04
2018-11-12T03:31:03.680Z,11.07
2018-11-12T03:33:34.304Z,11.04
2018-11-12T03:36:04.854Z,11.09
2018-11-12T03:38:35.445Z,11.09
2018-11-12T03:41:06.862Z,11.10
2018-11-12T03:43:37.425Z,11.10
2018-11-12T03:46:07.995Z,11.10
2018-11-12T03:48:38.559Z,11.15
2018-11-12T03:51:09.094Z,11.15
2018-11-12T03:53:39.674Z,11.18
2018-11-12T03:56:10.273Z,11.13
2018-11-12T03:58:40.830Z,11.16
2018-11-12T04:01:11.360Z,11.17
2018-11-12T04:03:42.060Z,11.18
2018-11-12T04:06:12.706Z,11.16
2018-11-12T04:08:43.410Z,11.16
2018-11-12T04:11:14.041Z,11.22
2018-11-12T04:13:44.638Z,11.22
2018-11-12T04:16:15.267Z,11.22
2018-11-12T04:18:45.816Z,11.26
2018-11-12T04:21:16.391Z,11.28
2018-11-12T04:23:46.925Z,11.27
2018-11-12T04:26:17.476Z,11.28
2018-11-12T04:28:48.240Z,11.28
2018-11-12T04:31:18.884Z,11.32
2018-11-12T04:33:49.470Z,11.38
2018-11-12T04:36:20.009Z,11.34
2018-11-12T04:38:50.549Z,11.38
2018-11-12T04:41:21.037Z,11.40
2018-11-12T04:43:51.625Z,11.40
2018-11-12T04:46:22.245Z,11.41
2018-11-12T04:48:53.051Z,11.41
2018-11-12T04:51:23.579Z,11.44
2018-11-12T04:53:54.163Z,11.44
2018-11-12T04:56:24.757Z,11.40
2018-11-12T04:58:55.318Z,11.48
2018-11-12T05:01:25.952Z,11.40
2018-11-12T05:03:56.498Z,11.45
2018-11-12T05:06:27.056Z,11.48
2018-11-12T05:08:57.939Z,11.50
2018-11-12T05:11:28.470Z,11.52
2018-11-12T05:13:59.004Z,11.49
2018-11-12T05:16:29.634Z,11.59
2018-11-12T05:19:00.260Z,11.52
2018-11-12T05:21:30.904Z,11.57
2018-11-12T05:24:02.629Z,11.58
2018-11-12T05:26:33.119Z,11.69
2018-11-12T05:29:04.025Z,11.67
2018-11-12T05:31:34.622Z,11.66
2018-11-12T05:34:05.349Z,11.66
2018-11-12T05:36:35.885Z,11.65
2018-11-12T05:39:10.111Z,11.66
2018-11-12T05:41:40.730Z,11.68
2018-11-12T05:44:11.299Z,11.67
2018-11-12T05:46:41.859Z,11.69
2018-11-12T05:49:13.144Z,11.67
2018-11-12T05:51:43.830Z,11.64
2018-11-12T05:54:14.399Z,11.72
2018-11-12T05:56:45.025Z,11.73
2018-11-12T05:59:15.563Z,11.63
2018-11-12T06:01:46.135Z,11.59
2018-11-12T06:04:16.915Z,11.61
2018-11-12T06:06:47.524Z,11.61
2018-11-12T06:09:18.269Z,11.66
2018-11-12T06:11:48.803Z,11.61
2018-11-12T06:14:19.390Z,11.67
2018-11-12T06:16:49.969Z,11.68
2018-11-12T06:19:20.772Z,11.74
2018-11-12T06:21:51.334Z,11.76
2018-11-12T06:24:21.960Z,11.79
2018-11-12T06:26:52.477Z,11.83
2018-11-12T06:29:23.246Z,11.85
2018-11-12T06:31:53.822Z,11.72
2018-11-12T06:34:24.348Z,11.77
2018-11-12T06:36:54.987Z,11.87
2018-11-12T06:39:25.542Z,11.90
2018-11-12T06:41:56.138Z,11.90
2018-11-12T06:44:26.716Z,11.85
2018-11-12T06:46:57.370Z,11.82
2018-11-12T06:49:28.162Z,11.81
2018-11-12T06:51:58.773Z,11.83
2018-11-12T06:54:29.408Z,11.88
2018-11-12T06:56:59.976Z,11.92
2018-11-12T06:59:30.549Z,11.95
2018-11-12T07:02:01.321Z,12.00
2018-11-12T07:04:31.991Z,12.01
2018-11-12T07:07:02.653Z,12.00
2018-11-12T07:09:33.435Z,11.96
2018-11-12T07:12:03.997Z,12.10
2018-11-12T07:14:49.364Z,12.12
2018-11-12T07:17:34.831Z,12.24
2018-11-12T07:20:22.146Z,12.21
2018-11-12T07:22:53.095Z,12.29
2018-11-12T07:25:27.155Z,12.23
2018-11-12T07:27:57.635Z,12.39
2018-11-12T07:30:29.082Z,12.41
2018-11-12T07:33:00.262Z,12.40
2018-11-12T07:35:30.709Z,12.39
2018-11-12T07:38:01.246Z,12.47
2018-11-12T07:40:31.726Z,12.37
2018-11-12T07:43:02.356Z,12.46
2018-11-12T07:45:32.874Z,12.55
2018-11-12T07:48:03.478Z,12.67
2018-11-12T07:50:33.988Z,12.52
2018-11-12T07:53:04.550Z,12.60
2018-11-12T07:55:35.119Z,12.63
2018-11-12T07:58:05.819Z,12.60
2018-11-12T08:00:36.347Z,12.61
2018-11-12T08:03:08.497Z,12.67
2018-11-12T08:05:39.434Z,12.62
2018-11-12T08:08:10.489Z,12.67
2018-11-12T08:10:40.944Z,12.65
2018-11-12T08:13:11.504Z,12.69
2018-11-12T08:15:42.043Z,12.69
2018-11-12T08:18:12.608Z,12.69
2018-11-12T08:20:43.295Z,12.79
2018-11-12T08:23:13.817Z,12.76
2018-11-12T08:25:44.420Z,12.76
2018-11-12T08:28:14.987Z,12.83
2018-11-12T08:30:46.737Z,12.81
2018-11-12T08:33:17.227Z,12.84
2018-11-12T08:35:48.580Z,12.96
2018-11-12T08:38:19.149Z,13.03
2018-11-12T08:40:49.757Z,13.00
2018-11-12T08:43:20.302Z,13.04
2018-11-12T08:45:50.832Z,13.06
2018-11-12T08:48:21.885Z,13.19
2018-11-12T08:50:52.569Z,13.14
2018-11-12T08:53:23.129Z,13.31
2018-11-12T08:55:54.380Z,13.36
2018-11-12T08:58:25.258Z,13.34
2018-11-12T09:00:55.973Z,13.67
2018-11-12T09:03:27.137Z,13.78
2018-11-12T09:05:57.683Z,13.83
2018-11-12T09:08:28.177Z,13.68
2018-11-12T09:10:59.023Z,13.64
2018-11-12T09:13:29.621Z,13.61
2018-11-12T09:16:00.161Z,14.01
2018-11-12T09:18:30.752Z,14.26
2018-11-12T09:21:01.349Z,14.39
2018-11-12T09:23:31.826Z,14.43
2018-11-12T09:26:02.383Z,14.48
2018-11-12T09:28:32.950Z,14.42
2018-11-12T09:31:05.017Z,14.37
2018-11-12T09:33:34.382Z,14.38
2018-11-12T09:36:05.054Z,14.48
2018-11-12T09:38:35.764Z,14.53
2018-11-12T09:41:06.535Z,14.54
2018-11-12T09:43:37.033Z,14.38
2018-11-12T09:46:08.113Z,14.29
2018-11-12T09:48:38.622Z,14.17
2018-11-12T09:51:09.227Z,14.23
2018-11-12T09:53:39.851Z,14.13
2018-11-12T09:56:10.489Z,14.13
2018-11-12T09:58:41.036Z,14.15
2018-11-12T10:01:11.916Z,14.08
2018-11-12T10:03:43.537Z,14.09
2018-11-12T10:06:13.448Z,13.99
2018-11-12T10:08:44.700Z,13.99
2018-11-12T10:11:16.164Z,14.05
2018-11-12T10:13:47.196Z,14.23
2018-11-12T10:16:17.919Z,14.64
2018-11-12T10:18:46.334Z,15.08
2018-11-12T10:21:16.784Z,15.19
2018-11-12T10:23:47.286Z,15.49
2018-11-12T10:26:17.834Z,15.48
2018-11-12T10:28:48.309Z,15.38
2018-11-12T10:36:20.358Z,15.05
2018-11-12T10:38:50.920Z,14.83
2018-11-12T10:41:21.480Z,14.89
2018-11-12T10:43:52.088Z,15.11
2018-11-12T10:46:22.612Z,15.22
2018-11-12T10:48:53.123Z,15.10
2018-11-12T10:51:23.836Z,15.10
2018-11-12T10:53:54.707Z,15.03
2018-11-12T10:56:25.124Z,14.90
2018-11-12T10:58:55.767Z,14.98
2018-11-12T11:01:31.551Z,15.03
2018-11-12T11:04:06.924Z,14.73
2018-11-12T11:06:37.474Z,14.67
2018-11-12T11:09:09.896Z,14.66
2018-11-12T11:11:40.469Z,14.57
2018-11-12T11:14:11.038Z,14.53
2018-11-12T11:16:41.591Z,14.47
2018-11-12T11:19:12.090Z,14.51
2018-11-12T11:21:42.626Z,14.48
2018-11-12T11:24:13.155Z,14.43
2018-11-12T11:26:43.752Z,14.43
2018-11-12T11:29:14.305Z,14.48
2018-11-12T11:31:44.886Z,14.53
2018-11-12T11:34:15.620Z,14.50
2018-11-12T11:36:46.169Z,14.45
2018-11-12T11:39:16.729Z,14.41
2018-11-12T11:41:47.291Z,14.45
2018-11-12T11:44:17.883Z,14.39
2018-11-12T11:46:48.512Z,14.25
2018-11-12T11:49:19.042Z,14.17
2018-11-12T11:51:49.558Z,14.22
2018-11-12T11:54:20.161Z,14.16
2018-11-12T11:56:50.741Z,14.19
2018-11-12T11:59:21.325Z,14.05
2018-11-12T12:01:51.832Z,14.02
2018-11-12T12:04:22.431Z,13.87
2018-11-12T12:06:53.048Z,13.86
2018-11-12T12:09:23.635Z,13.80
2018-11-12T12:11:54.231Z,13.81
2018-11-12T12:14:24.930Z,13.74
2018-11-12T12:16:55.454Z,13.76
2018-11-12T12:19:26.037Z,13.80
2018-11-12T12:21:56.598Z,13.91
2018-11-12T12:24:27.147Z,13.91
2018-11-12T12:26:57.758Z,13.86
2018-11-12T12:29:28.248Z,13.80
2018-11-12T12:31:58.974Z,13.77
2018-11-12T12:34:29.793Z,13.74
2018-11-12T12:37:00.426Z,13.60
2018-11-12T12:39:30.982Z,13.51
2018-11-12T12:42:01.566Z,13.52
2018-11-12T12:44:34.053Z,13.45
2018-11-12T12:47:05.282Z,13.38
2018-11-12T12:49:36.478Z,13.45
2018-11-12T12:52:07.674Z,13.54
2018-11-12T12:54:38.386Z,13.54
2018-11-12T12:57:09.720Z,13.41
2018-11-12T12:59:40.474Z,13.40
2018-11-12T13:02:11.334Z,13.49
2018-11-12T13:04:41.885Z,13.27
2018-11-12T13:07:12.501Z,13.23
2018-11-12T13:09:43.589Z,13.26
2018-11-12T13:12:14.153Z,13.15
2018-11-12T13:14:45.022Z,13.08
2018-11-12T13:17:15.534Z,13.03
2018-11-12T13:19:46.124Z,12.95
2018-11-12T13:22:16.982Z,12.99
2018-11-12T13:24:47.485Z,13.00
2018-11-12T13:27:18.105Z,12.98
2018-11-12T13:29:48.735Z,12.99
2018-11-12T13:32:19.213Z,13.07
2018-11-12T13:34:49.820Z,12.96
2018-11-12T13:37:20.263Z,12.85
2018-11-12T13:39:51.512Z,12.75
2018-11-12T13:42:27.506Z,12.79
2018-11-12T13:44:58.147Z,12.68
2018-11-12T13:47:28.695Z,12.66
2018-11-12T13:49:59.177Z,12.58
2018-11-12T13:52:29.771Z,12.57
2018-11-12T13:55:00.588Z,12.57
2018-11-12T13:57:31.118Z,12.52
2018-11-12T14:00:01.683Z,12.50
2018-11-12T14:02:32.244Z,12.45
2018-11-12T14:05:02.740Z,12.36
2018-11-12T14:07:33.352Z,12.37
2018-11-12T14:10:04.146Z,12.38
2018-11-12T14:12:34.731Z,12.32
2018-11-12T14:15:05.479Z,12.31
2018-11-12T14:17:37.164Z,12.38
2018-11-12T14:20:12.844Z,12.38
2018-11-12T14:22:43.790Z,12.36
2018-11-12T14:25:15.871Z,12.32
2018-11-12T14:27:47.522Z,12.32
2018-11-12T14:30:19.541Z,12.17
2018-11-12T14:32:50.179Z,12.12
2018-11-12T14:35:22.267Z,12.15
2018-11-12T14:37:52.976Z,12.06
2018-11-12T14:40:23.529Z,12.06
2018-11-12T14:42:54.161Z,12.04
2018-11-12T14:45:24.779Z,12.13
2018-11-12T14:47:55.423Z,12.02
2018-11-12T14:50:25.931Z,12.03
2018-11-12T14:52:56.690Z,12.01
2018-11-12T14:55:27.372Z,11.96
2018-11-12T14:57:57.926Z,11.95
2018-11-12T15:00:28.568Z,11.98
2018-11-12T15:02:59.211Z,11.88
2018-11-12T15:05:29.858Z,11.90
2018-11-12T15:08:00.500Z,11.86
2018-11-12T15:10:31.065Z,11.78
2018-11-12T15:13:01.826Z,11.72
2018-11-12T15:15:33.529Z,11.72
2018-11-12T15:18:04.112Z,11.68
2018-11-12T15:20:34.721Z,11.62
2018-11-12T15:23:05.339Z,11.58
2018-11-12T15:25:36.371Z,11.60
2018-11-12T15:28:07.222Z,11.62
2018-11-12T15:30:37.914Z,11.62
2018-11-12T15:33:08.514Z,11.50
2018-11-12T15:35:39.261Z,11.52
2018-11-12T15:38:09.819Z,11.54
2018-11-12T15:40:40.381Z,11.57
2018-11-12T15:43:11.068Z,11.56
2018-11-12T15:45:41.637Z,11.53
2018-11-12T15:48:12.178Z,11.51
2018-11-12T15:50:43.343Z,11.44
2018-11-12T15:53:13.964Z,11.39
2018-11-12T15:55:44.524Z,11.38
2018-11-12T15:58:15.135Z,11.36
2018-11-12T16:00:45.746Z,11.39
2018-11-12T16:03:16.318Z,11.46
2018-11-12T16:05:47.069Z,11.42
2018-11-12T16:08:17.626Z,11.39
2018-11-12T16:10:48.346Z,11.33
2018-11-12T16:13:18.954Z,11.39
2018-11-12T16:15:49.654Z,11.39
2018-11-12T16:18:20.274Z,11.55
2018-11-12T16:20:50.865Z,11.45
2018-11-12T16:23:21.416Z,11.40
2018-11-12T16:25:52.211Z,11.47
2018-11-12T16:28:22.798Z,11.44
2018-11-12T16:30:53.478Z,11.41
2018-11-12T16:33:24.141Z,11.38
2018-11-12T16:35:54.694Z,11.37
2018-11-12T16:38:25.367Z,11.32
2018-11-12T16:40:56.005Z,11.27
2018-11-12T16:43:26.621Z,11.20
2018-11-12T16:45:57.640Z,11.22
2018-11-12T16:48:28.169Z,11.25
2018-11-12T16:50:58.671Z,11.28
2018-11-12T16:53:29.386Z,11.19
2018-11-12T16:56:00.066Z,11.15
2018-11-12T16:58:30.705Z,11.12
2018-11-12T17:01:01.285Z,11.10
2018-11-12T17:03:31.926Z,11.10
2018-11-12T17:06:02.743Z,11.13
2018-11-12T17:08:33.362Z,11.10
2018-11-12T17:11:03.996Z,11.09
2018-11-12T17:13:34.565Z,11.04
2018-11-12T17:16:05.105Z,11.08
2018-11-12T17:18:35.785Z,11.08
2018-11-12T17:21:06.534Z,11.10
2018-11-12T17:23:37.138Z,11.08
2018-11-12T17:26:08.558Z,11.07
2018-11-12T17:28:39.737Z,11.11
2018-11-12T17:31:10.318Z,11.10
2018-11-12T17:33:41.234Z,11.07
2018-11-12T17:36:11.854Z,11.06
2018-11-12T17:38:42.474Z,10.95
2018-11-12T17:41:13.174Z,10.98
2018-11-12T17:43:43.755Z,10.97
2018-11-12T17:46:15.204Z,10.96
2018-11-12T17:48:45.769Z,10.93
2018-11-12T17:51:16.391Z,10.92
2018-11-12T17:53:47.052Z,10.87
2018-11-12T17:56:17.629Z,10.84
2018-11-12T17:58:48.298Z,10.80
2018-11-12T18:01:18.976Z,10.85
2018-11-12T18:03:49.457Z,10.89
2018-11-12T18:06:20.202Z,10.89
2018-11-12T18:08:51.134Z,10.82
2018-11-12T18:11:21.687Z,10.81
2018-11-12T18:13:52.701Z,10.83
2018-11-12T18:16:23.642Z,10.81
2018-11-12T18:18:54.312Z,10.87
2018-11-12T18:21:25.430Z,10.76
2018-11-12T18:23:56.281Z,10.72
2018-11-12T18:26:28.886Z,10.73
2018-11-12T18:28:59.618Z,10.76
2018-11-12T18:31:31.114Z,10.70
2018-11-12T18:34:01.676Z,10.74
2018-11-12T18:36:32.301Z,10.80
2018-11-12T18:39:03.164Z,10.81
2018-11-12T18:41:34.190Z,10.81
2018-11-12T18:44:05.023Z,10.76
2018-11-12T18:46:36.312Z,10.74
2018-11-12T18:49:07.200Z,10.78
2018-11-12T18:51:37.884Z,10.81
2018-11-12T18:54:08.637Z,10.79
2018-11-12T18:56:39.133Z,10.74
2018-11-12T18:59:09.853Z,10.70
2018-11-12T19:01:40.673Z,10.68
2018-11-12T19:04:11.339Z,10.69
2018-11-12T19:06:42.251Z,10.65
2018-11-12T19:09:13.141Z,10.66
2018-11-12T19:11:43.833Z,10.61
2018-11-12T19:14:14.930Z,10.61
2018-11-12T19:16:46.029Z,10.63
2018-11-12T19:19:16.867Z,10.54
2018-11-12T19:21:47.648Z,10.55
2018-11-12T19:24:18.405Z,10.62
2018-11-12T19:26:49.306Z,10.65
2018-11-12T19:29:19.956Z,10.60
2018-11-12T19:31:50.759Z,10.61
2018-11-12T19:34:21.552Z,10.54
2018-11-12T19:36:52.215Z,10.62
2018-11-12T19:39:23.030Z,10.61
2018-11-12T19:41:53.730Z,10.52
2018-11-12T19:44:24.567Z,10.55
2018-11-12T19:46:55.351Z,10.51
2018-11-12T19:49:26.062Z,10.56
2018-11-12T19:51:56.792Z,10.54
2018-11-12T19:54:28.592Z,10.51
2018-11-12T19:56:59.435Z,10.61
2018-11-12T19:59:30.070Z,10.67
2018-11-12T20:02:00.959Z,10.61
2018-11-12T20:04:31.855Z,10.54
2018-11-12T20:07:02.730Z,10.52
2018-11-12T20:09:33.403Z,10.48
2018-11-12T20:12:04.047Z,10.56
2018-11-12T20:14:40.330Z,10.54
2018-11-12T20:17:11.138Z,10.49
2018-11-12T20:19:41.849Z,10.53
2018-11-12T20:22:13.217Z,10.47
2018-11-12T20:24:43.751Z,10.44
2018-11-12T20:27:14.530Z,10.44
2018-11-12T20:29:45.109Z,10.40
2018-11-12T20:32:15.619Z,10.39
2018-11-12T20:34:46.338Z,10.37
2018-11-12T20:37:16.978Z,10.39
2018-11-12T20:39:47.607Z,10.36
2018-11-12T20:42:18.191Z,10.37
2018-11-12T20:44:48.660Z,10.37
2018-11-12T20:47:19.303Z,10.31
2018-11-12T20:49:49.835Z,10.23
2018-11-12T20:52:20.428Z,10.24
2018-11-12T20:54:51.007Z,10.29
2018-11-12T20:57:21.735Z,10.20
2018-11-12T20:59:52.372Z,10.17
2018-11-12T21:02:22.911Z,10.16
2018-11-12T21:04:53.845Z,10.14
2018-11-12T21:07:24.790Z,10.14
2018-11-12T21:09:55.430Z,10.10
2018-11-12T21:12:25.990Z,10.10
2018-11-12T21:14:56.666Z,10.12
2018-11-12T21:17:27.255Z,10.09
2018-11-12T21:19:57.874Z,10.07
2018-11-12T21:22:28.598Z,10.04
2018-11-12T21:24:59.730Z,10.03
2018-11-12T21:27:31.295Z,10.02
2018-11-12T21:30:01.857Z,9.96
2018-11-12T21:32:32.555Z,9.72
2018-11-12T21:35:03.019Z,9.94
2018-11-12T21:37:33.725Z,9.94
2018-11-12T21:40:04.462Z,9.94
2018-11-12T21:42:35.110Z,9.93
2018-11-12T21:45:07.352Z,9.93
2018-11-12T21:47:38.839Z,9.87
2018-11-12T21:50:11.394Z,9.90
2018-11-12T21:52:41.882Z,9.93
2018-11-12T21:55:13.112Z,9.90
2018-11-12T21:57:44.650Z,9.89
2018-11-12T22:00:22.260Z,9.88
2018-11-12T22:02:54.515Z,9.87
2018-11-12T22:05:25.693Z,9.90
2018-11-12T22:07:56.433Z,9.87
2018-11-12T22:10:27.238Z,9.86
2018-11-12T22:12:58.462Z,9.86
2018-11-12T22:15:28.980Z,9.87
2018-11-12T22:17:59.510Z,9.82
2018-11-12T22:20:30.214Z,9.91
2018-11-12T22:23:00.827Z,9.90
2018-11-12T22:25:31.294Z,9.89
2018-11-12T22:28:01.972Z,9.90
2018-11-12T22:30:32.500Z,9.89
2018-11-12T22:33:02.975Z,9.92
2018-11-12T22:35:33.399Z,9.81
2018-11-12T22:38:03.943Z,9.75
2018-11-12T22:40:34.441Z,9.80
2018-11-12T22:43:04.983Z,9.82
2018-11-12T22:45:35.533Z,9.84
2018-11-12T22:48:09.520Z,9.81
2018-11-12T22:50:40.000Z,9.74
2018-11-12T22:53:10.556Z,9.78
2018-11-12T22:55:41.023Z,9.79
2018-11-12T22:58:11.569Z,9.77
2018-11-12T23:00:44.318Z,9.76
2018-11-12T23:03:14.916Z,9.73
2018-11-12T23:05:45.439Z,9.69
2018-11-12T23:08:16.112Z,9.68
2018-11-12T23:10:46.678Z,9.64
2018-11-12T23:13:17.160Z,9.60
2018-11-12T23:15:47.707Z,9.57
2018-11-12T23:18:18.180Z,9.58
2018-11-12T23:20:48.738Z,9.55
2018-11-12T23:23:19.251Z,9.53
2018-11-12T23:25:49.831Z,9.49
2018-11-12T23:28:20.347Z,9.54
2018-11-12T23:30:50.915Z,9.52
2018-11-12T23:33:21.402Z,9.51
2018-11-12T23:35:52.034Z,9.50
2018-11-12T23:38:22.601Z,9.50
2018-11-12T23:40:53.152Z,9.40
2018-11-12T23:43:23.662Z,9.41
2018-11-12T23:45:54.150Z,9.40
2018-11-12T23:48:24.913Z,9.47
2018-11-12T23:50:55.581Z,9.43
2018-11-12T23:53:26.140Z,9.36
2018-11-12T23:55:56.720Z,9.38
2018-11-12T23:58:27.253Z,9.35
